Time;durP1;ratioP1;P1;durP2;ratioP2;P2;SDS_P1;SDS_P2;PMS_P1;PMS_P2;Temp;Humidity;BMP_temperature;BMP_pressure;BME280_temperature;BME280_humidity;BME280_pressure;Samples;Min_cycle;Max_cycle;Signal;HPM_P1;HPM_P2
2021/05/21 04:02:39;;;;;;;10.30;9.25;;;9.90;99.90;;;;;;4939325;23;20293;-70
2021/05/21 04:05:07;;;;;;;12.80;10.73;;;9.90;99.90;;;;;;4934557;29;20568;-71
2021/05/21 04:07:33;;;;;;;10.40;9.40;;;10.00;99.90;;;;;;4934140;29;20241;-71
2021/05/21 04:09:59;;;;;;;9.18;8.38;;;10.00;99.90;;;;;;4934863;29;20206;-71
2021/05/21 04:12:26;;;;;;;9.77;8.88;;;10.10;99.90;;;;;;4914760;29;20630;-70
2021/05/21 04:14:52;;;;;;;9.38;8.60;;;10.10;99.90;;;;;;4915415;29;20281;-71
2021/05/21 04:17:20;;;;;;;9.00;8.40;;;10.10;99.90;;;;;;4915431;29;20211;-71
2021/05/21 04:19:47;;;;;;;8.57;7.88;;;10.20;99.90;;;;;;4915493;29;20253;-70
2021/05/21 04:22:13;;;;;;;10.07;9.15;;;10.20;99.90;;;;;;4914859;29;20245;-69
2021/05/21 04:24:40;;;;;;;9.15;8.30;;;10.30;99.90;;;;;;4915368;29;20199;-69
2021/05/21 04:27:06;;;;;;;8.77;7.90;;;10.30;99.90;;;;;;4915216;29;20349;-70
2021/05/21 04:29:32;;;;;;;8.52;7.70;;;10.30;99.90;;;;;;4914641;29;20218;-69
2021/05/21 04:31:58;;;;;;;8.68;7.78;;;10.40;99.90;;;;;;4914792;29;20694;-70
2021/05/21 04:34:25;;;;;;;9.90;8.48;;;10.40;99.90;;;;;;4915098;29;20207;-70
2021/05/21 04:36:52;;;;;;;8.00;7.40;;;10.50;99.90;;;;;;4914359;29;20584;-69
2021/05/21 04:39:18;;;;;;;7.70;7.10;;;10.80;99.90;;;;;;4915125;29;20283;-69
2021/05/21 04:41:44;;;;;;;8.10;7.30;;;11.00;99.90;;;;;;4914292;29;20225;-70
2021/05/21 04:44:11;;;;;;;6.82;6.32;;;11.00;99.90;;;;;;4914335;29;20202;-69
2021/05/21 04:46:38;;;;;;;7.00;6.50;;;11.50;99.90;;;;;;4915714;29;20209;-70
2021/05/21 04:49:04;;;;;;;5.95;5.65;;;12.40;99.90;;;;;;4915895;29;20237;-70
2021/05/21 04:51:30;;;;;;;5.87;5.40;;;13.30;99.90;;;;;;4915261;29;20231;-70
2021/05/21 04:53:58;;;;;;;5.53;5.17;;;13.60;99.90;;;;;;4915247;29;20462;-69
2021/05/21 04:56:25;;;;;;;4.80;4.60;;;14.00;99.90;;;;;;4898530;29;20534;-70
2021/05/21 04:58:51;;;;;;;5.57;5.07;;;14.00;99.90;;;;;;4914608;29;20550;-69
2021/05/21 05:01:18;;;;;;;5.13;4.93;;;13.80;99.90;;;;;;4915293;29;20494;-70
2021/05/21 05:03:44;;;;;;;5.30;5.10;;;13.60;99.90;;;;;;4915415;29;20638;-70
2021/05/21 05:06:11;;;;;;;5.07;4.87;;;13.30;99.90;;;;;;4915012;29;20493;-71
2021/05/21 05:08:38;;;;;;;5.53;5.13;;;13.10;99.90;;;;;;4914817;29;20553;-70
2021/05/21 05:11:05;;;;;;;4.67;4.47;;;12.90;99.90;;;;;;4914618;29;20949;-70
2021/05/21 05:13:31;;;;;;;4.77;4.57;;;12.90;99.90;;;;;;4913998;29;20466;-71
2021/05/21 05:15:57;;;;;;;4.37;4.07;;;13.00;99.90;;;;;;4914858;29;20487;-71
2021/05/21 05:18:24;;;;;;;4.93;4.73;;;12.90;99.90;;;;;;4914671;29;20474;-70
2021/05/21 05:20:50;;;;;;;5.17;4.87;;;12.90;99.90;;;;;;4914867;29;20482;-71
2021/05/21 05:23:17;;;;;;;5.00;4.60;;;12.80;99.90;;;;;;4914287;29;20471;-71
2021/05/21 05:25:44;;;;;;;4.43;4.33;;;12.80;99.90;;;;;;4914552;29;20550;-70
2021/05/21 05:28:12;;;;;;;3.90;3.70;;;12.80;99.90;;;;;;4913680;29;20466;-70
2021/05/21 05:30:38;;;;;;;4.40;4.20;;;12.90;99.90;;;;;;4915127;29;20539;-70
2021/05/21 05:33:05;;;;;;;3.50;3.30;;;13.00;99.90;;;;;;4914594;29;20474;-70
2021/05/21 05:35:31;;;;;;;4.03;3.83;;;13.10;99.90;;;;;;4912688;29;20490;-70
2021/05/21 05:37:57;;;;;;;3.83;3.73;;;13.20;99.90;;;;;;4914633;29;20469;-70
2021/05/21 05:40:23;;;;;;;3.40;3.20;;;13.60;99.90;;;;;;4914525;29;20474;-70
2021/05/21 05:42:50;;;;;;;4.17;3.90;;;13.50;99.90;;;;;;4913581;29;20466;-70
2021/05/21 05:45:17;;;;;;;3.73;3.63;;;13.50;99.90;;;;;;4914627;29;20852;-69
2021/05/21 05:47:43;;;;;;;3.47;3.27;;;13.30;99.90;;;;;;4914802;29;20462;-70
2021/05/21 05:50:10;;;;;;;2.83;2.70;;;13.10;99.90;;;;;;4918534;29;20488;-70
2021/05/21 05:52:36;;;;;;;3.07;2.90;;;13.50;99.90;;;;;;4917875;29;20467;-70
2021/05/21 05:55:03;;;;;;;3.30;3.00;;;14.50;99.90;;;;;;4918500;29;21002;-69
2021/05/21 05:57:30;;;;;;;2.80;2.80;;;15.60;99.90;;;;;;4917313;29;20466;-70
2021/05/21 05:59:56;;;;;;;2.53;2.50;;;16.30;99.90;;;;;;4918555;29;20480;-70
2021/05/21 06:02:23;;;;;;;2.50;2.50;;;16.70;99.90;;;;;;4917978;29;20496;-70
2021/05/21 06:04:49;;;;;;;1.77;1.77;;;17.60;99.90;;;;;;4918239;29;20474;-70
2021/05/21 06:07:15;;;;;;;2.33;2.23;;;17.80;99.90;;;;;;4918366;29;20483;-70
2021/05/21 06:09:42;;;;;;;1.93;1.83;;;17.80;99.90;;;;;;4918671;29;20458;-70
2021/05/21 06:12:09;;;;;;;2.33;2.23;;;17.70;99.90;;;;;;4918117;29;20486;-70
2021/05/21 06:14:36;;;;;;;1.90;1.80;;;17.70;99.90;;;;;;4917993;29;20465;-70
2021/05/21 06:17:02;;;;;;;1.90;1.90;;;18.30;99.90;;;;;;4918294;29;20468;-70
2021/05/21 06:19:29;;;;;;;1.53;1.50;;;18.70;99.90;;;;;;4918130;29;20838;-70
2021/05/21 06:21:56;;;;;;;2.33;1.83;;;18.90;99.90;;;;;;4918214;29;20573;-70
2021/05/21 06:24:22;;;;;;;1.93;1.93;;;19.40;99.90;;;;;;4918207;29;20505;-70
2021/05/21 06:29:29;;;;;;;1.40;1.40;;;17.90;99.90;;;;;;4917597;29;20983;-69
2021/05/21 06:31:55;;;;;;;1.63;1.63;;;17.30;99.90;;;;;;4917694;29;20612;-69
2021/05/21 06:34:22;;;;;;;1.73;1.73;;;16.90;99.90;;;;;;4917206;29;20842;-68
2021/05/21 06:36:49;;;;;;;1.53;1.53;;;17.10;99.90;;;;;;4917134;29;20568;-69
2021/05/21 06:39:16;;;;;;;1.23;1.23;;;18.00;99.90;;;;;;4917365;29;20974;-69
2021/05/21 06:41:42;;;;;;;1.30;1.20;;;18.70;99.90;;;;;;4916880;29;20482;-68
2021/05/21 06:44:08;;;;;;;8.60;7.87;;;19.20;99.90;;;;;;4916677;29;20849;-69
2021/05/21 06:46:34;;;;;;;3.17;3.07;;;18.80;99.90;;;;;;4917178;29;20832;-69
2021/05/21 06:49:01;;;;;;;27.70;25.70;;;18.50;99.90;;;;;;4917025;29;20474;-70
2021/05/21 06:51:27;;;;;;;5.60;5.40;;;17.90;99.90;;;;;;4917121;29;20541;-69
2021/05/21 06:53:54;;;;;;;3.77;3.47;;;17.30;99.90;;;;;;4917015;29;20522;-69
2021/05/21 06:56:20;;;;;;;8.40;7.70;;;16.80;99.90;;;;;;4916312;29;20489;-70
2021/05/21 06:58:46;;;;;;;4.70;4.50;;;16.50;99.90;;;;;;4916616;29;20466;-69
2021/05/21 07:01:13;;;;;;;4.13;4.03;;;16.20;99.90;;;;;;4915394;29;20497;-70
2021/05/21 07:03:39;;;;;;;4.00;3.90;;;16.00;99.90;;;;;;4916646;29;20462;-70
2021/05/21 07:06:05;;;;;;;4.50;4.20;;;15.90;99.90;;;;;;4916952;29;20482;-69
2021/05/21 07:08:32;;;;;;;1.77;1.67;;;15.80;99.90;;;;;;4917022;29;20557;-72
2021/05/21 07:10:59;;;;;;;2.93;2.93;;;15.70;99.90;;;;;;4917250;29;20516;-71
2021/05/21 07:13:27;;;;;;;2.63;2.40;;;15.80;99.90;;;;;;4915733;29;20463;-72
2021/05/21 07:15:53;;;;;;;2.17;2.07;;;15.90;99.90;;;;;;4915970;29;20527;-71
2021/05/21 07:18:21;;;;;;;2.03;1.97;;;16.00;99.90;;;;;;4915691;29;20467;-66
2021/05/21 07:20:48;;;;;;;2.17;2.17;;;16.30;99.90;;;;;;4916033;29;20846;-69
2021/05/21 07:23:14;;;;;;;1.80;1.80;;;16.70;99.90;;;;;;4915750;29;20518;-67
2021/05/21 07:25:40;;;;;;;1.40;1.40;;;17.50;99.90;;;;;;4916387;29;20458;-67
2021/05/21 07:28:07;;;;;;;1.20;1.20;;;18.50;99.90;;;;;;4912635;29;20573;-67
2021/05/21 07:30:34;;;;;;;1.60;1.50;;;19.30;99.90;;;;;;4913199;29;20502;-70
2021/05/21 07:33:00;;;;;;;1.33;1.33;;;19.40;99.90;;;;;;4914920;29;20478;-67
2021/05/21 07:35:26;;;;;;;1.47;1.47;;;19.00;99.90;;;;;;4915672;29;20478;-68
2021/05/21 07:37:53;;;;;;;1.57;1.30;;;19.10;99.90;;;;;;4915543;29;20470;-69
2021/05/21 07:40:20;;;;;;;1.30;1.30;;;19.20;99.90;;;;;;4915895;29;20477;-68
2021/05/21 07:42:46;;;;;;;1.20;1.20;;;18.90;99.90;;;;;;4914068;29;20541;-67
2021/05/21 07:45:14;;;;;;;1.30;1.20;;;18.90;99.90;;;;;;4913112;29;20509;-68
2021/05/21 07:47:40;;;;;;;1.47;1.47;;;19.40;99.90;;;;;;4916008;29;20486;-67
2021/05/21 07:50:08;;;;;;;1.30;1.10;;;20.00;99.90;;;;;;4916079;29;20473;-67
2021/05/21 07:52:34;;;;;;;1.47;1.47;;;20.30;99.90;;;;;;4913494;29;20865;-68
2021/05/21 07:55:01;;;;;;;1.17;1.17;;;20.40;99.90;;;;;;4914729;29;20486;-68
2021/05/21 07:57:27;;;;;;;1.37;1.30;;;20.50;99.90;;;;;;4913962;29;20927;-68
2021/05/21 07:59:54;;;;;;;2.20;1.03;;;20.40;99.90;;;;;;4913534;29;20479;-68
2021/05/21 08:02:21;;;;;;;1.50;1.40;;;20.20;99.90;;;;;;4913888;29;20502;-68
2021/05/21 08:04:47;;;;;;;2.50;1.40;;;20.20;99.90;;;;;;4913008;29;20542;-68
2021/05/21 08:07:13;;;;;;;1.53;1.53;;;20.70;99.90;;;;;;4912945;29;20470;-69
2021/05/21 08:09:40;;;;;;;1.63;1.20;;;21.30;99.90;;;;;;4912911;29;20471;-69
2021/05/21 08:12:09;;;;;;;2.27;2.20;;;21.30;99.90;;;;;;4911437;29;20505;-67
2021/05/21 08:14:36;;;;;;;1.47;1.47;;;20.70;99.90;;;;;;4914481;29;20955;-69
2021/05/21 08:17:02;;;;;;;1.90;1.40;;;19.80;99.90;;;;;;4916335;29;20463;-68
2021/05/21 08:19:29;;;;;;;1.40;1.30;;;18.80;99.90;;;;;;4915346;29;20458;-68
2021/05/21 08:21:55;;;;;;;3.57;1.87;;;17.70;99.90;;;;;;4916348;29;20494;-69
2021/05/21 08:24:21;;;;;;;1.80;1.70;;;17.10;99.90;;;;;;4913991;29;21105;-68
2021/05/21 08:26:47;;;;;;;3.30;1.87;;;16.70;99.90;;;;;;4916135;29;20450;-70
2021/05/21 08:29:13;;;;;;;2.57;1.90;;;16.30;99.90;;;;;;4929933;29;20470;-69
2021/05/21 08:31:40;;;;;;;1.83;1.73;;;15.90;99.90;;;;;;4929909;29;20478;-70
2021/05/21 08:34:06;;;;;;;2.70;2.00;;;15.70;99.90;;;;;;4927817;29;20454;-70
2021/05/21 08:36:33;;;;;;;2.07;2.07;;;15.20;99.90;;;;;;4929015;29;20487;-70
2021/05/21 08:38:59;;;;;;;4.27;2.40;;;14.70;99.90;;;;;;4918918;29;20511;-70
2021/05/21 08:41:27;;;;;;;2.30;2.20;;;14.60;99.90;;;;;;4915893;29;20856;-70
2021/05/21 08:43:54;;;;;;;2.67;2.47;;;14.70;99.90;;;;;;4914644;29;20497;-71
2021/05/21 08:46:22;;;;;;;2.80;2.70;;;14.90;99.90;;;;;;4908880;29;20462;-71
2021/05/21 08:48:48;;;;;;;2.30;2.13;;;15.00;99.90;;;;;;4914763;29;20471;-69
2021/05/21 08:51:15;;;;;;;6.53;3.00;;;14.40;99.90;;;;;;4915137;29;21429;-68
2021/05/21 08:53:43;;;;;;;4.33;2.80;;;13.90;99.90;;;;;;4914580;29;20473;-68
2021/05/21 08:56:10;;;;;;;5.80;2.30;;;13.40;99.90;;;;;;4914227;29;20478;-67
2021/05/21 08:58:36;;;;;;;2.67;2.58;;;12.90;99.90;;;;;;4903062;29;20298;-68
2021/05/21 09:01:04;;;;;;;3.70;3.40;;;12.80;99.90;;;;;;4907649;29;20317;-70
2021/05/21 09:03:31;;;;;;;3.40;3.20;;;12.70;99.90;;;;;;4914777;29;20211;-70
2021/05/21 09:06:15;;;;;;;4.50;4.20;;;12.80;99.90;;;;;;4914434;29;20667;-70
2021/05/21 09:08:45;;;;;;;5.13;4.72;;;13.00;99.90;;;;;;4895984;29;20718;-68
2021/05/21 09:11:33;;;;;;;3.63;3.42;;;13.20;99.90;;;;;;4907211;29;20230;-68
2021/05/21 09:14:05;;;;;;;4.05;3.65;;;13.20;99.90;;;;;;4914130;29;20207;-69
2021/05/21 09:16:32;;;;;;;4.00;3.80;;;13.20;99.90;;;;;;4914717;29;20224;-69
2021/05/21 09:19:23;;;;;;;4.28;3.90;;;13.20;99.90;;;;;;4914726;29;20210;-69
2021/05/21 09:22:01;;;;;;;3.63;3.40;;;13.20;99.90;;;;;;4900076;29;20234;-68
2021/05/21 09:24:32;;;;;;;6.07;4.57;;;13.40;99.90;;;;;;4914378;29;20241;-69
2021/05/21 09:26:59;;;;;;;4.00;3.80;;;13.60;99.90;;;;;;4914031;29;20293;-68
2021/05/21 09:29:39;;;;;;;2.77;2.67;;;13.90;99.90;;;;;;4914370;29;20670;-69
2021/05/21 09:32:17;;;;;;;2.87;2.80;;;14.30;99.90;;;;;;4914746;29;20490;-69
2021/05/21 09:34:46;;;;;;;2.60;2.50;;;14.50;99.90;;;;;;4915202;29;20466;-68
2021/05/21 09:37:21;;;;;;;3.03;2.90;;;14.80;99.90;;;;;;4914368;29;20459;-70
2021/05/21 09:40:02;;;;;;;2.17;2.07;;;15.10;99.90;;;;;;4914451;29;20458;-69
2021/05/21 09:42:29;;;;;;;3.87;1.87;;;15.20;99.90;;;;;;4912950;29;20564;-69
2021/05/21 09:45:17;;;;;;;2.80;2.20;;;15.20;99.90;;;;;;4914417;29;20507;-69
2021/05/21 09:48:11;;;;;;;2.37;1.80;;;15.30;99.90;;;;;;4928722;29;20470;-71
2021/05/21 09:50:42;;;;;;;3.67;1.87;;;15.30;99.90;;;;;;4913857;29;20494;-69
2021/05/21 09:53:13;;;;;;;1.83;1.70;;;15.30;99.90;;;;;;4913526;29;20458;-69
2021/05/21 09:55:42;;;;;;;5.13;1.80;;;15.30;99.90;;;;;;4912566;29;20537;-68
2021/05/21 09:58:22;;;;;;;1.93;1.80;;;15.40;99.90;;;;;;4912855;29;20473;-68
2021/05/21 10:01:11;;;;;;;2.40;2.20;;;15.50;99.90;;;;;;4914016;29;20528;-70
2021/05/21 10:03:38;;;;;;;4.27;1.80;;;15.60;99.90;;;;;;4895048;29;20616;-68
2021/05/21 10:06:05;;;;;;;6.13;3.20;;;15.80;99.90;;;;;;4912545;29;20482;-68
2021/05/21 10:08:31;;;;;;;4.33;1.90;;;15.80;99.90;;;;;;4913578;29;20813;-68
2021/05/21 10:10:58;;;;;;;5.30;3.07;;;15.80;99.90;;;;;;4914371;29;20494;-69
2021/05/21 10:13:25;;;;;;;5.93;2.60;;;15.90;99.90;;;;;;4912413;29;20465;-67
2021/05/21 10:15:52;;;;;;;7.43;2.43;;;15.90;99.90;;;;;;4913853;29;20490;-68
2021/05/21 10:18:19;;;;;;;6.23;2.53;;;15.70;99.90;;;;;;4913895;29;20828;-68
2021/05/21 10:20:47;;;;;;;2.47;2.00;;;15.50;99.90;;;;;;4913557;29;20549;-68
2021/05/21 10:23:18;;;;;;;4.80;2.00;;;15.30;99.90;;;;;;4912947;29;20522;-67
2021/05/21 10:25:45;;;;;;;2.20;2.10;;;15.10;99.90;;;;;;4914290;29;20883;-70
2021/05/21 10:28:13;;;;;;;3.97;2.40;;;14.90;99.90;;;;;;4910835;29;20557;-69
2021/05/21 10:30:40;;;;;;;5.30;3.43;;;15.00;99.90;;;;;;4909894;29;20498;-72
2021/05/21 10:33:13;;;;;;;2.43;2.27;;;15.10;99.90;;;;;;4905534;29;20463;-70
2021/05/21 10:35:39;;;;;;;3.93;2.40;;;15.30;99.90;;;;;;4915150;29;20585;-71
2021/05/21 10:38:19;;;;;;;3.20;1.63;;;15.60;99.90;;;;;;4916822;29;20475;-72
2021/05/21 10:40:46;;;;;;;5.07;2.27;;;15.80;99.90;;;;;;4903388;29;20486;-72
2021/05/21 10:43:17;;;;;;;4.33;2.13;;;16.00;99.90;;;;;;4916146;29;20466;-71
2021/05/21 10:45:54;;;;;;;3.20;2.23;;;16.00;99.90;;;;;;4917728;29;20545;-72
2021/05/21 10:48:26;;;;;;;3.53;2.07;;;16.10;99.90;;;;;;4916948;29;20781;-71
2021/05/21 10:51:07;;;;;;;2.50;2.27;;;16.40;99.90;;;;;;4916491;29;20579;-71
2021/05/21 10:53:37;;;;;;;1.93;1.90;;;16.40;99.90;;;;;;4916395;29;20463;-72
2021/05/21 10:56:04;;;;;;;2.50;2.30;;;16.40;99.90;;;;;;4915799;29;20490;-73
2021/05/21 10:58:33;;;;;;;1.90;1.90;;;16.30;99.90;;;;;;4916480;29;20463;-72
2021/05/21 11:01:19;;;;;;;2.60;1.60;;;16.50;99.90;;;;;;4916822;29;20501;-72
2021/05/21 11:04:07;;;;;;;2.20;2.10;;;16.60;99.90;;;;;;4916087;29;20471;-70
2021/05/21 11:06:43;;;;;;;3.33;2.00;;;16.60;99.90;;;;;;4917258;29;20469;-72
2021/05/21 11:09:11;;;;;;;1.80;1.70;;;16.60;99.90;;;;;;4916592;29;20796;-72
2021/05/21 11:11:48;;;;;;;2.37;1.87;;;16.70;99.90;;;;;;4916923;29;20990;-71
2021/05/21 11:14:34;;;;;;;1.70;1.60;;;16.90;99.90;;;;;;4917104;29;20451;-72
2021/05/21 11:17:11;;;;;;;2.30;2.20;;;16.80;99.90;;;;;;4917944;29;20529;-72
2021/05/21 11:19:43;;;;;;;2.50;1.70;;;17.00;99.90;;;;;;4917909;29;21006;-72
2021/05/21 11:22:16;;;;;;;4.70;2.80;;;17.20;99.90;;;;;;4917084;29;21453;-69
2021/05/21 11:24:44;;;;;;;2.20;2.10;;;17.40;99.90;;;;;;4917398;29;20602;-68
2021/05/21 11:27:14;;;;;;;3.20;2.22;;;17.60;99.90;;;;;;4916947;29;20466;-66
2021/05/21 11:29:44;;;;;;;2.23;2.00;;;17.60;99.90;;;;;;4916559;29;20667;-70
2021/05/21 11:32:10;;;;;;;2.07;1.97;;;17.70;99.90;;;;;;4916091;29;20514;-68
2021/05/21 11:34:38;;;;;;;3.50;2.00;;;17.70;99.90;;;;;;4916497;29;20573;-69
2021/05/21 11:37:05;;;;;;;2.20;2.00;;;17.60;99.90;;;;;;4916011;29;20558;-68
2021/05/21 11:39:33;;;;;;;3.70;2.30;;;17.50;99.90;;;;;;4916685;29;20684;-68
2021/05/21 11:41:59;;;;;;;2.23;2.13;;;17.40;99.90;;;;;;4916554;29;20509;-69
2021/05/21 11:44:27;;;;;;;2.33;2.17;;;17.30;99.90;;;;;;4916367;29;20518;-69
2021/05/21 11:46:58;;;;;;;2.70;2.60;;;17.20;99.90;;;;;;4916100;29;20462;-69
2021/05/21 11:49:25;;;;;;;3.77;3.47;;;16.90;99.90;;;;;;4916262;29;20462;-68
2021/05/21 11:52:00;;;;;;;3.07;2.97;;;16.30;99.90;;;;;;4916114;29;20485;-68
2021/05/21 11:54:28;;;;;;;3.20;2.90;;;15.70;99.90;;;;;;4916568;29;20492;-69
2021/05/21 11:56:55;;;;;;;4.53;3.33;;;15.30;99.90;;;;;;4916172;29;20589;-69
2021/05/21 11:59:23;;;;;;;3.83;3.53;;;15.10;99.90;;;;;;4915349;29;20557;-70
2021/05/21 12:01:51;;;;;;;3.47;3.20;;;15.00;99.90;;;;;;4915640;29;20557;-69
2021/05/21 12:04:20;;;;;;;3.63;3.33;;;15.00;99.90;;;;;;4915047;29;20585;-71
2021/05/21 12:06:48;;;;;;;3.73;3.60;;;14.90;99.90;;;;;;4915569;29;20463;-69
2021/05/21 12:09:16;;;;;;;3.80;3.50;;;14.90;99.90;;;;;;4915096;29;20478;-69
2021/05/21 12:11:43;;;;;;;3.37;3.07;;;14.90;99.90;;;;;;4915354;29;20493;-69
2021/05/21 12:14:11;;;;;;;5.43;3.00;;;14.90;99.90;;;;;;4914733;29;20482;-68
2021/05/21 12:16:39;;;;;;;2.90;2.80;;;15.00;99.90;;;;;;4915245;29;20494;-68
2021/05/21 12:19:06;;;;;;;3.23;3.03;;;15.20;99.90;;;;;;4915410;29;20466;-69
2021/05/21 12:21:34;;;;;;;2.97;2.87;;;15.50;99.90;;;;;;4915375;29;20486;-69
2021/05/21 12:24:01;;;;;;;4.27;3.23;;;15.80;99.90;;;;;;4914829;29;20488;-69
2021/05/21 12:26:29;;;;;;;2.87;2.60;;;15.90;99.90;;;;;;4914541;29;20506;-69
2021/05/21 12:28:57;;;;;;;2.40;2.30;;;16.10;99.90;;;;;;4915079;29;20466;-70
2021/05/21 12:31:28;;;;;;;2.67;2.40;;;16.10;99.90;;;;;;4915211;29;20491;-68
2021/05/21 12:33:55;;;;;;;2.40;2.30;;;16.00;99.90;;;;;;4914587;29;20471;-69
2021/05/21 12:36:24;;;;;;;2.53;2.40;;;15.90;99.90;;;;;;4915107;29;20482;-69
2021/05/21 12:38:53;;;;;;;2.20;2.00;;;15.90;99.90;;;;;;4915166;29;20470;-69
2021/05/21 12:41:23;;;;;;;3.70;2.87;;;16.00;99.90;;;;;;4914548;29;20559;-69
2021/05/21 12:43:50;;;;;;;2.10;2.10;;;16.20;99.90;;;;;;4914535;29;20561;-71
2021/05/21 12:46:16;;;;;;;1.87;1.77;;;16.40;99.90;;;;;;4915694;29;20477;-71
2021/05/21 12:48:44;;;;;;;1.97;1.73;;;16.70;99.90;;;;;;4915783;29;20477;-70
2021/05/21 12:51:16;;;;;;;1.47;1.37;;;16.70;99.90;;;;;;4915518;29;20486;-69
2021/05/21 12:53:43;;;;;;;1.67;1.40;;;16.70;99.90;;;;;;4914223;29;20499;-70
2021/05/21 12:56:26;;;;;;;1.77;0.90;;;16.80;99.90;;;;;;4914970;29;20522;-70
2021/05/21 12:58:52;;;;;;;1.93;1.37;;;16.70;99.90;;;;;;4913938;29;20959;-71
2021/05/21 13:01:19;;;;;;;1.43;1.30;;;16.80;99.90;;;;;;4915052;29;20873;-70
2021/05/21 13:03:53;;;;;;;1.10;1.07;;;17.00;99.90;;;;;;4914827;29;20829;-69
2021/05/21 13:06:31;;;;;;;3.97;1.20;;;17.30;99.90;;;;;;4915404;29;20502;-69
2021/05/21 13:09:02;;;;;;;1.27;1.00;;;17.50;99.90;;;;;;4914987;29;20470;-69
2021/05/21 13:11:29;;;;;;;3.23;1.30;;;17.50;99.90;;;;;;4914514;29;20501;-70
2021/05/21 13:14:01;;;;;;;0.97;0.97;;;17.40;99.90;;;;;;4913292;29;20463;-70
2021/05/21 13:16:43;;;;;;;2.30;1.10;;;17.30;99.90;;;;;;4914503;29;20550;-70
2021/05/21 13:19:09;;;;;;;1.53;1.10;;;17.30;99.90;;;;;;4914697;29;20473;-70
2021/05/21 13:21:37;;;;;;;2.00;1.20;;;17.20;99.90;;;;;;4915464;29;20544;-69
2021/05/21 13:24:08;;;;;;;4.20;1.50;;;17.30;99.90;;;;;;4914258;29;20993;-70
2021/05/21 13:26:46;;;;;;;1.73;1.60;;;17.20;99.90;;;;;;4914717;29;20577;-69
2021/05/21 13:29:13;;;;;;;1.77;1.50;;;17.30;99.90;;;;;;4894405;29;20483;-69
2021/05/21 13:31:39;;;;;;;2.73;1.53;;;17.40;99.90;;;;;;4906834;29;20486;-68
2021/05/21 13:34:06;;;;;;;1.53;1.23;;;17.50;99.90;;;;;;4914507;29;20815;-68
2021/05/21 13:36:32;;;;;;;2.03;1.10;;;17.50;99.90;;;;;;4915007;29;21057;-67
2021/05/21 13:38:59;;;;;;;5.17;1.30;;;17.50;99.90;;;;;;4911692;29;20487;-68
2021/05/21 13:41:25;;;;;;;3.30;1.27;;;17.70;99.90;;;;;;4906647;29;20486;-69
2021/05/21 13:43:52;;;;;;;2.33;1.03;;;17.60;99.90;;;;;;4914086;29;20471;-68
2021/05/21 13:46:18;;;;;;;2.17;2.07;;;17.60;99.90;;;;;;4916236;29;20871;-68
2021/05/21 13:48:44;;;;;;;1.97;1.53;;;17.70;99.90;;;;;;4916580;29;20462;-68
2021/05/21 13:51:11;;;;;;;1.70;1.60;;;17.70;99.90;;;;;;4919083;29;20839;-67
2021/05/21 13:53:37;;;;;;;2.00;1.80;;;17.70;99.90;;;;;;4923002;29;20486;-67
2021/05/21 13:56:04;;;;;;;1.53;1.30;;;17.80;99.90;;;;;;4916236;29;20486;-70
2021/05/21 13:58:30;;;;;;;2.43;1.43;;;17.80;99.90;;;;;;4919287;29;20463;-69
2021/05/21 14:00:57;;;;;;;1.70;1.40;;;17.70;99.90;;;;;;4924207;29;20538;-69
2021/05/21 14:03:23;;;;;;;3.57;1.80;;;17.70;99.90;;;;;;4919004;29;20470;-71
2021/05/21 14:05:50;;;;;;;2.47;1.90;;;17.80;99.90;;;;;;4913888;29;21125;-72
2021/05/21 14:08:16;;;;;;;3.30;2.10;;;18.00;99.90;;;;;;4913947;29;20506;-68
2021/05/21 14:10:42;;;;;;;2.83;1.27;;;17.90;99.90;;;;;;4916483;29;20494;-70
2021/05/21 14:13:08;;;;;;;2.53;1.67;;;17.60;99.90;;;;;;4916424;29;20959;-71
2021/05/21 14:15:34;;;;;;;2.13;1.83;;;17.50;99.90;;;;;;4917261;29;20486;-71
2021/05/21 14:18:01;;;;;;;1.87;1.77;;;17.40;99.90;;;;;;4916608;29;20462;-71
2021/05/21 14:20:28;;;;;;;2.30;1.80;;;17.50;99.90;;;;;;4914461;29;21062;-72
2021/05/21 14:22:55;;;;;;;2.83;1.70;;;17.60;99.90;;;;;;4912457;29;20478;-71
2021/05/21 14:25:27;;;;;;;1.90;1.73;;;17.70;99.90;;;;;;4916954;29;20463;-69
2021/05/21 14:27:53;;;;;;;2.17;1.60;;;17.60;99.90;;;;;;4915629;29;20986;-69
2021/05/21 14:30:20;;;;;;;1.40;1.30;;;17.40;99.90;;;;;;4916284;29;21143;-71
2021/05/21 14:32:48;;;;;;;3.57;1.83;;;17.20;99.90;;;;;;4915999;29;20473;-70
2021/05/21 14:35:15;;;;;;;3.43;1.30;;;17.00;99.90;;;;;;4914763;29;20481;-71
2021/05/21 14:37:42;;;;;;;3.23;1.40;;;17.00;99.90;;;;;;4916436;29;20466;-71
2021/05/21 14:40:09;;;;;;;2.93;1.30;;;16.80;99.90;;;;;;4916151;29;20504;-71
2021/05/21 14:42:36;;;;;;;1.23;1.23;;;17.00;99.90;;;;;;4908180;29;20470;-72
2021/05/21 14:45:02;;;;;;;2.17;2.03;;;17.20;99.90;;;;;;4916646;29;20466;-72
2021/05/21 14:47:28;;;;;;;5.10;1.90;;;17.20;99.90;;;;;;4915321;29;20514;-72
2021/05/21 14:49:54;;;;;;;1.33;1.20;;;17.10;99.90;;;;;;4916735;29;20463;-72
2021/05/21 14:52:21;;;;;;;2.03;1.03;;;17.10;99.90;;;;;;4915786;29;20485;-71
2021/05/21 14:54:49;;;;;;;3.00;1.20;;;17.20;99.90;;;;;;4917554;29;20470;-72
2021/05/21 14:57:21;;;;;;;1.67;1.10;;;17.30;99.90;;;;;;4916116;29;20499;-72
2021/05/21 14:59:47;;;;;;;1.50;1.40;;;17.50;99.90;;;;;;4916834;29;20878;-73
2021/05/21 15:02:14;;;;;;;4.07;1.00;;;17.50;99.90;;;;;;4916028;29;20505;-72
2021/05/21 15:04:40;;;;;;;4.33;1.30;;;17.60;99.90;;;;;;4916591;29;20470;-71
2021/05/21 15:07:08;;;;;;;3.03;1.70;;;17.70;99.90;;;;;;4914694;29;20467;-73
2021/05/21 15:09:35;;;;;;;1.17;0.73;;;17.60;99.90;;;;;;4912806;29;20570;-72
2021/05/21 15:12:03;;;;;;;3.50;1.63;;;17.20;99.90;;;;;;4908345;29;20859;-72
2021/05/21 15:14:31;;;;;;;3.10;1.23;;;16.90;99.90;;;;;;4915367;29;20522;-71
2021/05/21 15:17:05;;;;;;;1.77;1.67;;;16.70;99.90;;;;;;4915682;29;20494;-72
2021/05/21 15:25:04;;;;;;;1.80;1.20;;;16.80;99.90;;;;;;4910614;29;20584;-71
2021/05/21 15:27:30;;;;;;;1.23;1.23;;;16.40;99.90;;;;;;4911895;29;20553;-72
2021/05/21 15:29:57;;;;;;;0.73;0.73;;;16.30;99.90;;;;;;4897719;29;20527;-72
2021/05/21 15:32:24;;;;;;;0.93;0.60;;;16.40;99.90;;;;;;4915631;29;20922;-71
2021/05/21 15:34:50;;;;;;;0.50;0.50;;;16.40;99.90;;;;;;4916353;29;20466;-72
2021/05/21 15:37:16;;;;;;;2.40;0.83;;;16.40;99.90;;;;;;4915458;29;20494;-72
2021/05/21 15:39:43;;;;;;;0.93;0.80;;;16.50;99.90;;;;;;4915753;29;20463;-72
2021/05/21 15:42:35;;;;;;;3.03;0.90;;;16.40;99.90;;;;;;4913093;29;21177;-72
2021/05/21 15:47:46;;;;;;;1.43;0.73;;;16.40;99.90;;;;;;4915349;29;20457;-71
2021/05/21 15:50:16;;;;;;;1.27;0.80;;;16.40;99.90;;;;;;4913257;29;20911;-71
2021/05/21 15:52:48;;;;;;;0.80;0.80;;;16.30;99.90;;;;;;4915404;29;20881;-70
2021/05/21 15:55:20;;;;;;;0.93;0.73;;;16.40;99.90;;;;;;4913481;29;20559;-70
2021/05/21 15:57:52;;;;;;;1.43;1.33;;;16.60;99.90;;;;;;4907934;29;20455;-70
2021/05/21 16:00:19;;;;;;;1.47;1.17;;;17.00;99.90;;;;;;4910001;29;20482;-70
2021/05/21 16:02:45;;;;;;;1.40;1.30;;;17.40;99.90;;;;;;4913100;29;20486;-71
2021/05/21 16:05:12;;;;;;;1.90;1.23;;;17.50;99.90;;;;;;4913759;29;20485;-70
2021/05/21 16:07:38;;;;;;;1.47;1.00;;;17.40;99.90;;;;;;4915181;29;20465;-71
2021/05/21 16:10:06;;;;;;;1.10;1.10;;;17.30;99.90;;;;;;4913957;29;20470;-72
2021/05/21 16:12:32;;;;;;;2.70;2.50;;;17.20;99.90;;;;;;4913124;29;20462;-71
2021/05/21 16:14:59;;;;;;;4.23;1.63;;;17.10;99.90;;;;;;4913589;29;20466;-71
2021/05/21 16:17:26;;;;;;;2.77;1.40;;;16.90;99.90;;;;;;4915154;29;20490;-71
2021/05/21 16:19:52;;;;;;;4.13;1.80;;;16.80;99.90;;;;;;4914114;29;20596;-71
2021/05/21 16:22:18;;;;;;;1.00;1.00;;;16.70;99.90;;;;;;4913523;29;20648;-70
2021/05/21 16:24:45;;;;;;;1.43;1.30;;;16.50;99.90;;;;;;4913670;29;20564;-71
2021/05/21 16:27:11;;;;;;;3.43;2.00;;;16.30;99.90;;;;;;4915039;29;20553;-72
2021/05/21 16:29:39;;;;;;;2.70;2.10;;;16.20;99.90;;;;;;4905758;29;20494;-71
2021/05/21 16:32:07;;;;;;;1.57;1.57;;;16.10;99.90;;;;;;4906567;29;20529;-71
2021/05/21 16:34:33;;;;;;;2.07;1.80;;;16.10;99.90;;;;;;4914372;29;20478;-70
2021/05/21 16:37:02;;;;;;;5.40;1.77;;;16.00;99.90;;;;;;4914116;29;20494;-70
2021/05/21 16:39:29;;;;;;;3.50;1.40;;;15.90;99.90;;;;;;4913894;29;20822;-70
2021/05/21 16:41:55;;;;;;;1.60;1.50;;;15.90;99.90;;;;;;4914675;29;20494;-69
2021/05/21 16:44:21;;;;;;;1.90;1.10;;;15.90;99.90;;;;;;4912046;29;20817;-72
2021/05/21 16:46:47;;;;;;;1.70;1.20;;;15.80;99.90;;;;;;4905058;29;20558;-70
2021/05/21 16:49:14;;;;;;;0.90;0.90;;;15.80;99.90;;;;;;4905554;29;20545;-70
2021/05/21 16:51:41;;;;;;;1.33;1.33;;;15.80;99.90;;;;;;4914403;29;20570;-69
2021/05/21 16:54:07;;;;;;;4.20;1.63;;;15.80;99.90;;;;;;4913187;29;20470;-70
2021/05/21 16:56:36;;;;;;;1.47;1.47;;;15.80;99.90;;;;;;4911661;29;20482;-69
2021/05/21 16:59:04;;;;;;;2.03;1.87;;;15.80;99.90;;;;;;4912108;29;20553;-69
2021/05/21 17:01:30;;;;;;;1.37;1.27;;;15.90;99.90;;;;;;4913656;29;20498;-70
2021/05/21 17:03:56;;;;;;;5.47;1.63;;;16.00;99.90;;;;;;4913281;29;20475;-70